METAR AND TAF INFORMATION
METAR FOR LBSF
ADDS - METARS form results

(0158 UTC 21 March 2019)
Data provider http://aviationweather.gov/metar/data/
 
METAR text: LBSF 210130Z 13004KT 9999 FEW032 BKN058 08/04 Q1029 NOSIG
Conditions at: LBSF (SOFIA , BG) observed 0130 UTC 21 March 2019
Temperature: 8.0°C (46°F)
Dewpoint: 4.0°C (39°F) [RH = 76%]
Pressure (altimeter): 30.38 inches Hg (1029.0 mb)
Winds: from the SE (130 degrees) at 5 MPH (4 knots; 2.1 m/s)
Visibility: 6 or more miles (10+ km)
Ceiling: 5800 feet AGL
Clouds: few clouds at 3200 feet AGL
broken clouds at 5800 feet AGL
Weather: no significant weather observed at this time

METAR text: LBSF 210100Z 10005KT 9999 FEW031 OVC058 08/04 Q1029 NOSIG
Conditions at: LBSF (SOFIA , BG) observed 0100 UTC 21 March 2019
Temperature: 8.0°C (46°F)
Dewpoint: 4.0°C (39°F) [RH = 76%]
Pressure (altimeter): 30.38 inches Hg (1029.0 mb)
Winds: from the E (100 degrees) at 6 MPH (5 knots; 2.6 m/s)
Visibility: 6 or more miles (10+ km)
Ceiling: 5800 feet AGL
Clouds: few clouds at 3100 feet AGL
overcast cloud deck at 5800 feet AGL
Weather: no significant weather observed at this time

Forecast for: LBSF (SOFIA , BG)
Text: TAF LBSF 202300Z 2100/2124 VRB04KT 9999 SCT025 BKN040
Forecast period: 0000 to 0600 UTC 21 March 2019
Forecast type: FROM: standard forecast or significant change
Winds: variable direction winds at 5 MPH (4 knots; 2.1 m/s)
Visibility: 6 or more miles 10+ km)
Ceiling: 4000 feet AGL
Clouds: scattered clouds at 2500 feet AGL
broken clouds at 4000 feet AGL
Weather: no significant weather forecast for this period
Text: BECMG 2106/2108 08014KT
Forecast period: 0600 UTC 21 March 2019 to 0000 UTC 22 March 2019
Forecast type: BECOMING: Conditions expected to become as follows by 0800 UTC 21 March 2019
Winds: from the E (80 degrees) at 16 MPH (14 knots; 7.2 m/s)
Visibility: 6 or more miles 10+ km)
Ceiling: 4000 feet AGL
Clouds: scattered clouds at 2500 feet AGL
broken clouds at 4000 feet AGL
Weather: no significant weather forecast for this period

 AIRPORT MAP

 RUNWAY INFORMATION

 AIRPORT FREQUENCIES
Type APP Name APP Frequency 123.7 MHZ
Type ATIS Name ATIS Frequency 124.05 MHZ
Type TWR Name TWR Frequency 118.1 MHZ

 AIRPORT NEAR NAVIGATION AIDS
Type NDB Name Bozhourishte Frequency 312 KHZ
Type NDB Name Sofia Frequency 375 KHZ
Type NDB Name Sofia Frequency 335 KHZ
Type NDB Name Sofia Frequency 529 KHZ
Type VOR-DME Name Sofia Frequency 112600 KHZ
Type NDB Name Sofia Frequency 350 KHZ



Powered by Virtual Airlines Manager [v2.6.2]